PRIVATE WETTERSTATION BILLIGHEIM-ALLFELD                       ZURCK
Wetterdaten: Samstag, 04.10.2014
Datum Zeit Temp. A. Temp. A. min Temp. A. max Feuchte A. Luftdruck Regen Wind Richtung Richtung Sonnenschein ET Solar Taupunkt Windchill Windben Empfang
04.10.2014 00:00 11,2 C 11,2 C 11,6 C 89 % 1021,6 hPa 0,0 l/m 0,0 km/h (0 Bft) NW 315 0 min 0,000 mm 0 W/m 9,5 C 11,2 C 6,4 km/h (2 Bft) 99 %
04.10.2014 00:10 10,9 C 10,9 C 11,2 C 89 % 1021,5 hPa 0,0 l/m 0,0 km/h (0 Bft) NW 315 0 min 0,000 mm 0 W/m 9,2 C 10,9 C 1,6 km/h (1 Bft) 99 %
04.10.2014 00:20 10,7 C 10,7 C 10,9 C 90 % 1021,5 hPa 0,0 l/m 0,0 km/h (0 Bft) NW 315 0 min 0,000 mm 0 W/m 9,1 C 10,7 C 4,8 km/h (1 Bft) 99 %
04.10.2014 00:30 10,5 C 10,5 C 10,7 C 90 % 1021,4 hPa 0,0 l/m 0,0 km/h (0 Bft) NW 315 0 min 0,000 mm 0 W/m 8,9 C 10,5 C 4,8 km/h (1 Bft) 100 %
04.10.2014 00:40 10,3 C 10,3 C 10,5 C 90 % 1021,3 hPa 0,0 l/m 0,0 km/h (0 Bft) N 360 0 min 0,000 mm 0 W/m 8,7 C 10,3 C 1,6 km/h (1 Bft) 99 %
04.10.2014 00:50 10,2 C 10,1 C 10,3 C 90 % 1021,3 hPa 0,0 l/m 0,0 km/h (0 Bft) N 360 0 min 0,000 mm 0 W/m 8,6 C 10,2 C 1,6 km/h (1 Bft) 100 %
04.10.2014 01:00 10,0 C 10,0 C 10,2 C 90 % 1021,3 hPa 0,0 l/m 0,0 km/h (0 Bft) N 360 0 min 0,000 mm 0 W/m 8,4 C 10,0 C 1,6 km/h (1 Bft) 100 %
04.10.2014 01:10 9,9 C 9,9 C 10,0 C 90 % 1021,2 hPa 0,0 l/m 0,0 km/h (0 Bft) N 0 0 min 0,000 mm 0 W/m 8,3 C 9,9 C 0,0 km/h (0 Bft) 99 %
04.10.2014 01:20 9,8 C 9,8 C 9,9 C 90 % 1021,1 hPa 0,0 l/m 0,0 km/h (0 Bft) N-NW 337 0 min 0,000 mm 0 W/m 8,2 C 9,8 C 1,6 km/h (1 Bft) 100 %
04.10.2014 01:30 9,7 C 9,7 C 9,8 C 90 % 1021,1 hPa 0,0 l/m 0,0 km/h (0 Bft) N-NW 337 0 min 0,000 mm 0 W/m 8,1 C 9,7 C 4,8 km/h (1 Bft) 100 %
04.10.2014 01:40 9,6 C 9,6 C 9,7 C 90 % 1021,1 hPa 0,0 l/m 1,6 km/h (1 Bft) NW 315 0 min 0,000 mm 0 W/m 8,0 C 9,6 C 6,4 km/h (2 Bft) 100 %
04.10.2014 01:50 9,6 C 9,6 C 9,6 C 90 % 1020,9 hPa 0,0 l/m 0,0 km/h (0 Bft) NW 315 0 min 0,000 mm 0 W/m 8,0 C 9,6 C 1,6 km/h (1 Bft) 100 %
04.10.2014 02:00 9,6 C 9,6 C 9,6 C 90 % 1020,8 hPa 0,0 l/m 0,0 km/h (0 Bft) W 270 0 min 0,000 mm 0 W/m 8,0 C 9,6 C 3,2 km/h (1 Bft) 100 %
04.10.2014 02:10 9,6 C 9,6 C 9,6 C 90 % 1020,7 hPa 0,0 l/m 0,0 km/h (0 Bft) O-NO 67 0 min 0,000 mm 0 W/m 8,0 C 9,6 C 4,8 km/h (1 Bft) 99 %
04.10.2014 02:20 9,4 C 9,4 C 9,6 C 90 % 1020,6 hPa 0,0 l/m 1,6 km/h (1 Bft) NW 315 0 min 0,000 mm 0 W/m 7,8 C 9,4 C 4,8 km/h (1 Bft) 100 %
04.10.2014 02:30 9,4 C 9,4 C 9,4 C 90 % 1020,5 hPa 0,0 l/m 1,6 km/h (1 Bft) NW 315 0 min 0,000 mm 0 W/m 7,8 C 9,4 C 6,4 km/h (2 Bft) 100 %
04.10.2014 02:40 9,4 C 9,4 C 9,4 C 90 % 1020,5 hPa 0,0 l/m 0,0 km/h (0 Bft) W-NW 292 0 min 0,000 mm 0 W/m 7,8 C 9,4 C 8,0 km/h (2 Bft) 99 %
04.10.2014 02:50 9,4 C 9,4 C 9,4 C 90 % 1020,4 hPa 0,0 l/m 0,0 km/h (0 Bft) W-NW 292 0 min 0,000 mm 0 W/m 7,8 C 9,4 C 4,8 km/h (1 Bft) 100 %
04.10.2014 03:00 9,3 C 9,3 C 9,4 C 90 % 1020,4 hPa 0,0 l/m 1,6 km/h (1 Bft) W-NW 292 0 min 0,000 mm 0 W/m 7,7 C 9,3 C 6,4 km/h (2 Bft) 100 %
04.10.2014 03:10 9,3 C 9,3 C 9,3 C 90 % 1020,3 hPa 0,0 l/m 0,0 km/h (0 Bft) NW 315 0 min 0,000 mm 0 W/m 7,7 C 9,3 C 4,8 km/h (1 Bft) 100 %
04.10.2014 03:20 9,2 C 9,2 C 9,3 C 90 % 1020,3 hPa 0,0 l/m 0,0 km/h (0 Bft) NW 315 0 min 0,000 mm 0 W/m 7,6 C 9,2 C 3,2 km/h (1 Bft) 100 %
04.10.2014 03:30 9,1 C 9,1 C 9,2 C 90 % 1020,1 hPa 0,0 l/m 0,0 km/h (0 Bft) NW 315 0 min 0,000 mm 0 W/m 7,5 C 9,1 C 1,6 km/h (1 Bft) 100 %
04.10.2014 03:40 8,9 C 8,9 C 9,1 C 90 % 1020,1 hPa 0,0 l/m 0,0 km/h (0 Bft) NW 315 0 min 0,000 mm 0 W/m 7,4 C 8,9 C 1,6 km/h (1 Bft) 100 %
04.10.2014 03:50 8,9 C 8,9 C 8,9 C 90 % 1020,1 hPa 0,0 l/m 0,0 km/h (0 Bft) N-NW 337 0 min 0,000 mm 0 W/m 7,4 C 8,9 C 1,6 km/h (1 Bft) 100 %
04.10.2014 04:00 8,9 C 8,9 C 8,9 C 90 % 1020,1 hPa 0,0 l/m 1,6 km/h (1 Bft) N-NW 337 0 min 0,000 mm 0 W/m 7,4 C 8,9 C 4,8 km/h (1 Bft) 100 %
04.10.2014 04:10 8,9 C 8,9 C 8,9 C 90 % 1020,0 hPa 0,0 l/m 0,0 km/h (0 Bft) N-NW 337 0 min 0,000 mm 0 W/m 7,4 C 8,9 C 1,6 km/h (1 Bft) 100 %
04.10.2014 04:20 8,7 C 8,7 C 8,9 C 91 % 1020,0 hPa 0,0 l/m 0,0 km/h (0 Bft) N-NW 337 0 min 0,000 mm 0 W/m 7,3 C 8,7 C 4,8 km/h (1 Bft) 100 %
04.10.2014 04:30 8,6 C 8,6 C 8,8 C 90 % 1019,8 hPa 0,0 l/m 0,0 km/h (0 Bft) N-NW 337 0 min 0,000 mm 0 W/m 7,1 C 8,6 C 1,6 km/h (1 Bft) 100 %
04.10.2014 04:40 8,4 C 8,4 C 8,6 C 91 % 1019,7 hPa 0,0 l/m 0,0 km/h (0 Bft) N-NW 337 0 min 0,000 mm 0 W/m 7,0 C 8,4 C 3,2 km/h (1 Bft) 100 %
04.10.2014 04:50 8,3 C 8,3 C 8,4 C 90 % 1019,7 hPa 0,0 l/m 0,0 km/h (0 Bft) N-NW 337 0 min 0,000 mm 0 W/m 6,8 C 8,3 C 1,6 km/h (1 Bft) 100 %
04.10.2014 05:00 8,3 C 8,3 C 8,3 C 90 % 1019,6 hPa 0,0 l/m 0,0 km/h (0 Bft) N-NW 337 0 min 0,000 mm 0 W/m 6,8 C 8,3 C 3,2 km/h (1 Bft) 100 %
04.10.2014 05:10 8,2 C 8,2 C 8,3 C 90 % 1019,4 hPa 0,0 l/m 0,0 km/h (0 Bft) N-NW 337 0 min 0,000 mm 0 W/m 6,7 C 8,2 C 1,6 km/h (1 Bft) 100 %
04.10.2014 05:20 8,0 C 8,0 C 8,2 C 91 % 1019,4 hPa 0,0 l/m 0,0 km/h (0 Bft) N-NW 337 0 min 0,000 mm 0 W/m 6,6 C 8,0 C 4,8 km/h (1 Bft) 100 %
04.10.2014 05:30 7,9 C 7,9 C 8,0 C 90 % 1019,3 hPa 0,0 l/m 0,0 km/h (0 Bft) N-NW 337 0 min 0,000 mm 0 W/m 6,4 C 7,9 C 1,6 km/h (1 Bft) 100 %
04.10.2014 05:40 7,9 C 7,9 C 7,9 C 90 % 1019,3 hPa 0,0 l/m 0,0 km/h (0 Bft) N-NW 337 0 min 0,000 mm 0 W/m 6,4 C 7,9 C 1,6 km/h (1 Bft) 100 %
04.10.2014 05:50 7,8 C 7,8 C 7,9 C 90 % 1019,3 hPa 0,0 l/m 0,0 km/h (0 Bft) N 0 0 min 0,000 mm 0 W/m 6,3 C 7,8 C 0,0 km/h (0 Bft) 86 %
04.10.2014 06:00 7,8 C 7,8 C 7,8 C 90 % 1019,3 hPa 0,0 l/m 0,0 km/h (0 Bft) N-NW 337 0 min 0,000 mm 0 W/m 6,3 C 7,8 C 3,2 km/h (1 Bft) 100 %
04.10.2014 06:10 7,7 C 7,7 C 7,8 C 91 % 1019,3 hPa 0,0 l/m 0,0 km/h (0 Bft) N-NW 337 0 min 0,000 mm 0 W/m 6,3 C 7,7 C 3,2 km/h (1 Bft) 100 %
04.10.2014 06:20 7,7 C 7,7 C 7,7 C 91 % 1019,2 hPa 0,0 l/m 0,0 km/h (0 Bft) N-NW 337 0 min 0,000 mm 0 W/m 6,3 C 7,7 C 3,2 km/h (1 Bft) 100 %
04.10.2014 06:30 7,8 C 7,7 C 7,8 C 90 % 1019,2 hPa 0,0 l/m 1,6 km/h (1 Bft) N-NW 337 0 min 0,000 mm 0 W/m 6,3 C 7,8 C 4,8 km/h (1 Bft) 99 %
04.10.2014 06:40 7,7 C 7,7 C 7,8 C 90 % 1019,2 hPa 0,0 l/m 0,0 km/h (0 Bft) N-NW 337 0 min 0,000 mm 0 W/m 6,2 C 7,7 C 3,2 km/h (1 Bft) 100 %
04.10.2014 06:50 7,7 C 7,7 C 7,8 C 91 % 1019,1 hPa 0,0 l/m 0,0 km/h (0 Bft) N-NW 337 0 min 0,000 mm 0 W/m 6,3 C 7,7 C 3,2 km/h (1 Bft) 100 %
04.10.2014 07:00 7,7 C 7,7 C 7,7 C 91 % 1019,1 hPa 0,0 l/m 0,0 km/h (0 Bft) N-NW 337 0 min 0,000 mm 0 W/m 6,3 C 7,7 C 3,2 km/h (1 Bft) 100 %
04.10.2014 07:10 7,6 C 7,6 C 7,7 C 90 % 1019,0 hPa 0,0 l/m 0,0 km/h (0 Bft) N-NW 337 0 min 0,000 mm 0 W/m 6,1 C 7,6 C 1,6 km/h (1 Bft) 100 %
04.10.2014 07:20 7,5 C 7,5 C 7,6 C 90 % 1018,9 hPa 0,0 l/m 0,0 km/h (0 Bft) N-NW 337 0 min 0,000 mm 0 W/m 6,0 C 7,5 C 3,2 km/h (1 Bft) 100 %
04.10.2014 07:30 7,5 C 7,4 C 7,5 C 90 % 1018,9 hPa 0,0 l/m 0,0 km/h (0 Bft) NW 315 0 min 0,000 mm 0 W/m 6,0 C 7,5 C 3,2 km/h (1 Bft) 100 %
04.10.2014 07:40 7,6 C 7,5 C 7,6 C 90 % 1018,8 hPa 0,0 l/m 0,0 km/h (0 Bft) NW 315 0 min 0,000 mm 9 W/m 6,1 C 7,6 C 3,2 km/h (1 Bft) 100 %
04.10.2014 07:50 7,6 C 7,5 C 7,6 C 90 % 1018,9 hPa 0,0 l/m 0,0 km/h (0 Bft) N-NO 22 0 min 0,000 mm 14 W/m 6,1 C 7,6 C 4,8 km/h (1 Bft) 100 %
04.10.2014 08:00 7,8 C 7,6 C 7,8 C 90 % 1018,8 hPa 0,0 l/m 0,0 km/h (0 Bft) N 360 0 min 0,000 mm 21 W/m 6,3 C 7,8 C 1,6 km/h (1 Bft) 100 %
04.10.2014 08:10 8,0 C 7,8 C 8,0 C 90 % 1018,9 hPa 0,0 l/m 0,0 km/h (0 Bft) N 360 0 min 0,000 mm 26 W/m 6,5 C 8,0 C 3,2 km/h (1 Bft) 100 %
04.10.2014 08:20 8,1 C 8,0 C 8,1 C 90 % 1019,0 hPa 0,0 l/m 0,0 km/h (0 Bft) N 360 0 min 0,000 mm 33 W/m 6,6 C 8,1 C 3,2 km/h (1 Bft) 100 %
04.10.2014 08:30 8,2 C 8,1 C 8,2 C 90 % 1019,0 hPa 0,0 l/m 0,0 km/h (0 Bft) N 360 0 min 0,000 mm 39 W/m 6,7 C 8,2 C 1,6 km/h (1 Bft) 100 %
04.10.2014 08:40 8,3 C 8,2 C 8,3 C 90 % 1019,0 hPa 0,0 l/m 0,0 km/h (0 Bft) N 0 0 min 0,000 mm 120 W/m 6,8 C 8,3 C 0,0 km/h (0 Bft) 100 %
04.10.2014 08:50 8,6 C 8,3 C 8,6 C 90 % 1019,0 hPa 0,0 l/m 0,0 km/h (0 Bft) N 0 0 min 0,000 mm 148 W/m 7,1 C 8,6 C 0,0 km/h (0 Bft) 100 %
04.10.2014 09:00 9,1 C 8,6 C 9,1 C 90 % 1019,0 hPa 0,0 l/m 0,0 km/h (0 Bft) N 0 10 min 0,025 mm 176 W/m 7,5 C 9,1 C 0,0 km/h (0 Bft) 100 %
04.10.2014 09:10 9,5 C 9,1 C 9,5 C 90 % 1019,0 hPa 0,0 l/m 0,0 km/h (0 Bft) N 360 10 min 0,000 mm 199 W/m 7,9 C 9,5 C 1,6 km/h (1 Bft) 100 %
04.10.2014 09:20 9,9 C 9,5 C 9,9 C 90 % 1018,9 hPa 0,0 l/m 0,0 km/h (0 Bft) N 360 10 min 0,000 mm 229 W/m 8,3 C 9,9 C 1,6 km/h (1 Bft) 100 %
04.10.2014 09:30 10,4 C 9,9 C 10,4 C 90 % 1018,9 hPa 0,0 l/m 0,0 km/h (0 Bft) N-NW 337 10 min 0,000 mm 253 W/m 8,8 C 10,4 C 3,2 km/h (1 Bft) 100 %
04.10.2014 09:40 10,9 C 9,9 C 10,9 C 90 % 1018,8 hPa 0,0 l/m 0,5 km/h (0 Bft) O-NO 63 10 min 0,000 mm 279 W/m 9,3 C 10,9 C 4,8 km/h (1 Bft) 97 %
04.10.2014 09:50 11,5 C 10,9 C 11,5 C 90 % 1018,6 hPa 0,0 l/m 0,0 km/h (0 Bft) N-NW 340 10 min 0,000 mm 304 W/m 9,9 C 11,5 C 1,6 km/h (1 Bft) 97 %
04.10.2014 10:00 12,1 C 11,5 C 12,1 C 91 % 1018,5 hPa 0,0 l/m 0,2 km/h (0 Bft) NW 306 10 min 0,127 mm 329 W/m 10,7 C 12,1 C 4,8 km/h (1 Bft) 98 %
04.10.2014 10:10 12,7 C 12,1 C 12,7 C 89 % 1018,6 hPa 0,0 l/m 1,5 km/h (1 Bft) SO 138 10 min 0,000 mm 352 W/m 10,9 C 12,7 C 11,3 km/h (2 Bft) 98 %
04.10.2014 10:20 13,0 C 12,7 C 13,0 C 87 % 1018,5 hPa 0,0 l/m 0,6 km/h (0 Bft) NO 49 10 min 0,000 mm 380 W/m 10,9 C 13,0 C 6,4 km/h (2 Bft) 97 %
04.10.2014 10:30 13,5 C 13,0 C 13,5 C 86 % 1018,3 hPa 0,0 l/m 1,5 km/h (1 Bft) N 350 10 min 0,000 mm 406 W/m 11,2 C 13,5 C 11,3 km/h (2 Bft) 97 %
04.10.2014 10:40 14,3 C 13,5 C 14,3 C 83 % 1018,4 hPa 0,0 l/m 3,1 km/h (1 Bft) O-SO 112 10 min 0,000 mm 425 W/m 11,5 C 14,3 C 14,5 km/h (3 Bft) 98 %
04.10.2014 10:50 14,8 C 14,3 C 14,8 C 81 % 1018,2 hPa 0,0 l/m 3,3 km/h (1 Bft) SO 138 10 min 0,000 mm 441 W/m 11,6 C 14,8 C 16,1 km/h (3 Bft) 97 %
04.10.2014 11:00 15,1 C 14,8 C 15,1 C 81 % 1018,2 hPa 0,0 l/m 3,8 km/h (1 Bft) O 96 10 min 0,000 mm 462 W/m 11,9 C 15,1 C 16,1 km/h (3 Bft) 97 %
04.10.2014 11:10 15,4 C 15,1 C 15,4 C 80 % 1018,1 hPa 0,0 l/m 4,3 km/h (1 Bft) SW 227 10 min 0,203 mm 487 W/m 12,0 C 15,4 C 17,7 km/h (3 Bft) 98 %
04.10.2014 11:20 15,8 C 15,4 C 15,8 C 80 % 1018,1 hPa 0,0 l/m 2,8 km/h (1 Bft) SO 128 10 min 0,001 mm 503 W/m 12,4 C 15,8 C 16,1 km/h (3 Bft) 97 %
04.10.2014 11:30 16,2 C 15,8 C 16,2 C 77 % 1017,8 hPa 0,0 l/m 5,0 km/h (1 Bft) O-SO 107 10 min 0,000 mm 515 W/m 12,2 C 16,2 C 17,7 km/h (3 Bft) 97 %
04.10.2014 11:40 16,3 C 16,1 C 16,3 C 78 % 1017,8 hPa 0,0 l/m 6,8 km/h (2 Bft) O-SO 104 10 min 0,000 mm 526 W/m 12,5 C 16,1 C 19,3 km/h (3 Bft) 97 %
04.10.2014 11:50 16,7 C 16,3 C 16,7 C 75 % 1017,7 hPa 0,0 l/m 3,9 km/h (1 Bft) SO 141 10 min 0,000 mm 536 W/m 12,2 C 16,7 C 17,7 km/h (3 Bft) 98 %
04.10.2014 12:00 16,8 C 16,7 C 16,8 C 75 % 1017,6 hPa 0,0 l/m 2,9 km/h (1 Bft) S-SO 148 10 min 0,279 mm 550 W/m 12,3 C 16,8 C 14,5 km/h (3 Bft) 97 %
04.10.2014 12:10 17,0 C 16,8 C 17,0 C 74 % 1017,5 hPa 0,0 l/m 3,6 km/h (1 Bft) O-NO 57 10 min 0,000 mm 561 W/m 12,3 C 17,0 C 12,9 km/h (3 Bft) 98 %
04.10.2014 12:20 17,0 C 17,0 C 17,1 C 73 % 1017,4 hPa 0,0 l/m 7,2 km/h (2 Bft) O-SO 105 10 min 0,000 mm 557 W/m 12,1 C 16,6 C 20,9 km/h (4 Bft) 99 %
04.10.2014 12:30 17,0 C 16,9 C 17,0 C 74 % 1017,3 hPa 0,0 l/m 4,6 km/h (1 Bft) O-SO 121 10 min 0,000 mm 568 W/m 12,3 C 17,0 C 16,1 km/h (3 Bft) 100 %
04.10.2014 12:40 17,3 C 17,0 C 17,3 C 74 % 1017,2 hPa 0,0 l/m 3,1 km/h (1 Bft) O-SO 112 10 min 0,000 mm 577 W/m 12,6 C 17,3 C 14,5 km/h (3 Bft) 100 %
04.10.2014 12:50 17,6 C 17,3 C 17,6 C 71 % 1017,2 hPa 0,0 l/m 3,2 km/h (1 Bft) S-SW 209 10 min 0,000 mm 580 W/m 12,3 C 17,6 C 16,1 km/h (3 Bft) 99 %
04.10.2014 13:00 17,8 C 17,6 C 17,8 C 70 % 1017,2 hPa 0,0 l/m 4,1 km/h (1 Bft) SO 137 10 min 0,330 mm 585 W/m 12,3 C 17,8 C 16,1 km/h (3 Bft) 100 %
04.10.2014 13:10 17,7 C 17,7 C 17,8 C 68 % 1017,1 hPa 0,0 l/m 5,2 km/h (1 Bft) S-SO 157 10 min 0,000 mm 554 W/m 11,7 C 17,7 C 22,5 km/h (4 Bft) 100 %
04.10.2014 13:20 17,6 C 17,6 C 17,7 C 69 % 1017,0 hPa 0,0 l/m 6,4 km/h (2 Bft) S-SO 157 10 min 0,000 mm 571 W/m 11,8 C 17,6 C 20,9 km/h (4 Bft) 100 %
04.10.2014 13:30 17,7 C 17,6 C 17,7 C 69 % 1016,9 hPa 0,0 l/m 6,5 km/h (2 Bft) O-SO 107 10 min 0,000 mm 563 W/m 11,9 C 17,7 C 17,7 km/h (3 Bft) 100 %
04.10.2014 13:40 17,8 C 17,6 C 17,8 C 69 % 1016,9 hPa 0,0 l/m 6,8 km/h (2 Bft) S 173 10 min 0,000 mm 554 W/m 12,0 C 17,6 C 20,9 km/h (4 Bft) 100 %
04.10.2014 13:50 17,8 C 17,8 C 17,8 C 70 % 1016,8 hPa 0,0 l/m 3,2 km/h (1 Bft) S-SO 163 10 min 0,000 mm 388 W/m 12,3 C 17,8 C 11,3 km/h (2 Bft) 100 %
04.10.2014 14:00 17,9 C 17,8 C 17,9 C 69 % 1016,6 hPa 0,0 l/m 6,5 km/h (2 Bft) S-SO 150 10 min 0,330 mm 554 W/m 12,1 C 17,9 C 24,1 km/h (4 Bft) 100 %
04.10.2014 14:10 18,1 C 17,9 C 18,1 C 69 % 1016,6 hPa 0,0 l/m 1,5 km/h (1 Bft) S-SW 205 10 min 0,000 mm 573 W/m 12,3 C 18,1 C 16,1 km/h (3 Bft) 100 %
04.10.2014 14:20 18,5 C 18,1 C 18,5 C 68 % 1016,5 hPa 0,0 l/m 2,4 km/h (1 Bft) SO 134 10 min 0,000 mm 508 W/m 12,5 C 18,5 C 11,3 km/h (2 Bft) 100 %
04.10.2014 14:30 18,3 C 18,3 C 18,5 C 69 % 1016,3 hPa 0,0 l/m 3,8 km/h (1 Bft) S-SO 148 10 min 0,000 mm 513 W/m 12,5 C 18,3 C 16,1 km/h (3 Bft) 99 %
04.10.2014 14:40 18,2 C 18,2 C 18,3 C 68 % 1016,2 hPa 0,0 l/m 2,5 km/h (1 Bft) O 90 0 min 0,000 mm 104 W/m 12,2 C 18,2 C 12,9 km/h (3 Bft) 100 %
04.10.2014 14:50 18,2 C 18,2 C 18,3 C 67 % 1016,2 hPa 0,0 l/m 2,3 km/h (1 Bft) SW 218 10 min 0,000 mm 478 W/m 12,0 C 18,2 C 11,3 km/h (2 Bft) 100 %
04.10.2014 15:00 18,2 C 18,2 C 18,3 C 67 % 1016,1 hPa 0,0 l/m 5,0 km/h (1 Bft) SO 142 10 min 0,254 mm 153 W/m 12,0 C 18,2 C 16,1 km/h (3 Bft) 100 %
04.10.2014 15:10 18,5 C 18,2 C 18,5 C 68 % 1016,1 hPa 0,0 l/m 1,1 km/h (1 Bft) S-SO 161 10 min 0,000 mm 473 W/m 12,5 C 18,5 C 8,0 km/h (2 Bft) 100 %
04.10.2014 15:20 18,8 C 18,5 C 18,8 C 66 % 1015,9 hPa 0,0 l/m 1,3 km/h (1 Bft) O-SO 123 10 min 0,000 mm 390 W/m 12,3 C 18,8 C 6,4 km/h (2 Bft) 100 %
04.10.2014 15:30 19,2 C 18,8 C 19,2 C 65 % 1015,8 hPa 0,0 l/m 2,0 km/h (1 Bft) O-SO 106 10 min 0,000 mm 436 W/m 12,5 C 19,2 C 9,7 km/h (2 Bft) 98 %
04.10.2014 15:40 19,1 C 19,1 C 19,2 C 67 % 1015,6 hPa 0,0 l/m 1,2 km/h (1 Bft) S-SO 148 10 min 0,000 mm 176 W/m 12,8 C 19,1 C 9,7 km/h (2 Bft) 100 %
04.10.2014 15:50 18,9 C 18,9 C 19,1 C 66 % 1015,5 hPa 0,0 l/m 3,2 km/h (1 Bft) S-SW 194 0 min 0,000 mm 134 W/m 12,4 C 18,9 C 19,3 km/h (3 Bft) 99 %
04.10.2014 16:00 18,8 C 18,8 C 18,9 C 66 % 1015,4 hPa 0,0 l/m 3,1 km/h (1 Bft) O 80 0 min 0,204 mm 83 W/m 12,3 C 18,8 C 11,3 km/h (2 Bft) 100 %
04.10.2014 16:10 18,6 C 18,6 C 18,8 C 67 % 1015,3 hPa 0,0 l/m 2,4 km/h (1 Bft) S-SO 149 0 min 0,000 mm 70 W/m 12,3 C 18,6 C 11,3 km/h (2 Bft) 99 %
04.10.2014 16:20 18,1 C 18,1 C 18,6 C 68 % 1015,3 hPa 0,0 l/m 1,8 km/h (1 Bft) O 95 0 min 0,000 mm 67 W/m 12,1 C 18,1 C 14,5 km/h (3 Bft) 100 %
04.10.2014 16:30 17,8 C 17,8 C 18,1 C 71 % 1015,4 hPa 0,0 l/m 0,3 km/h (0 Bft) O-SO 102 0 min 0,000 mm 70 W/m 12,5 C 17,8 C 6,4 km/h (2 Bft) 100 %
04.10.2014 16:40 17,6 C 17,6 C 17,8 C 72 % 1015,3 hPa 0,0 l/m 1,7 km/h (1 Bft) O-SO 107 0 min 0,000 mm 60 W/m 12,5 C 17,6 C 9,7 km/h (2 Bft) 100 %
04.10.2014 16:50 17,3 C 17,3 C 17,6 C 73 % 1015,2 hPa 0,0 l/m 0,3 km/h (0 Bft) O-SO 123 0 min 0,000 mm 60 W/m 12,4 C 17,3 C 6,4 km/h (2 Bft) 100 %
04.10.2014 17:00 17,3 C 17,3 C 17,3 C 74 % 1015,3 hPa 0,0 l/m 1,4 km/h (1 Bft) S-SO 147 0 min 0,050 mm 65 W/m 12,6 C 17,3 C 9,7 km/h (2 Bft) 100 %
04.10.2014 17:10 17,2 C 17,2 C 17,3 C 73 % 1015,2 hPa 0,0 l/m 2,9 km/h (1 Bft) SO 140 0 min 0,000 mm 42 W/m 12,3 C 17,2 C 11,3 km/h (2 Bft) 100 %
04.10.2014 17:20 17,0 C 17,0 C 17,3 C 74 % 1015,3 hPa 0,0 l/m 1,6 km/h (1 Bft) O-SO 122 0 min 0,000 mm 40 W/m 12,3 C 17,0 C 9,7 km/h (2 Bft) 100 %
04.10.2014 17:30 16,6 C 16,6 C 17,0 C 76 % 1015,4 hPa 0,0 l/m 2,2 km/h (1 Bft) S-SO 150 0 min 0,000 mm 47 W/m 12,3 C 16,6 C 8,0 km/h (2 Bft) 100 %
04.10.2014 17:40 16,3 C 16,3 C 16,6 C 76 % 1015,4 hPa 0,0 l/m 5,3 km/h (1 Bft) O 98 0 min 0,000 mm 42 W/m 12,1 C 16,3 C 16,1 km/h (3 Bft) 99 %
04.10.2014 17:50 16,1 C 16,1 C 16,3 C 77 % 1015,4 hPa 0,0 l/m 4,4 km/h (1 Bft) S-SO 147 0 min 0,000 mm 35 W/m 12,1 C 16,1 C 14,5 km/h (3 Bft) 100 %
04.10.2014 18:00 15,7 C 15,7 C 16,1 C 78 % 1015,5 hPa 0,0 l/m 1,8 km/h (1 Bft) S-SO 149 0 min 0,026 mm 25 W/m 11,9 C 15,7 C 16,1 km/h (3 Bft) 100 %
04.10.2014 18:10 15,2 C 15,2 C 15,7 C 79 % 1015,6 hPa 0,0 l/m 2,4 km/h (1 Bft) SO 125 0 min 0,000 mm 23 W/m 11,6 C 15,2 C 11,3 km/h (2 Bft) 100 %
04.10.2014 18:20 14,8 C 14,8 C 15,2 C 81 % 1015,6 hPa 0,0 l/m 1,7 km/h (1 Bft) S-SO 148 0 min 0,000 mm 18 W/m 11,6 C 14,8 C 9,7 km/h (2 Bft) 99 %
04.10.2014 18:30 14,4 C 14,4 C 14,8 C 81 % 1015,6 hPa 0,0 l/m 1,7 km/h (1 Bft) S-SO 155 0 min 0,000 mm 14 W/m 11,2 C 14,4 C 8,0 km/h (2 Bft) 100 %
04.10.2014 18:40 14,0 C 14,0 C 14,4 C 82 % 1015,6 hPa 0,0 l/m 1,9 km/h (1 Bft) O-SO 105 0 min 0,000 mm 7 W/m 11,0 C 14,0 C 8,0 km/h (2 Bft) 100 %
04.10.2014 18:50 13,7 C 13,7 C 14,0 C 83 % 1015,8 hPa 0,0 l/m 1,6 km/h (1 Bft) SO 128 0 min 0,000 mm 0 W/m 10,9 C 13,7 C 9,7 km/h (2 Bft) 100 %
04.10.2014 19:00 13,3 C 13,3 C 13,7 C 84 % 1015,9 hPa 0,0 l/m 0,5 km/h (0 Bft) SO 141 0 min 0,025 mm 0 W/m 10,7 C 13,3 C 4,8 km/h (1 Bft) 100 %
04.10.2014 19:10 12,9 C 12,9 C 13,3 C 85 % 1016,0 hPa 0,0 l/m 0,4 km/h (0 Bft) O 87 0 min 0,000 mm 0 W/m 10,4 C 12,9 C 4,8 km/h (1 Bft) 99 %
04.10.2014 19:20 12,7 C 12,7 C 12,9 C 86 % 1016,0 hPa 0,0 l/m 0,5 km/h (0 Bft) O 85 0 min 0,000 mm 0 W/m 10,4 C 12,7 C 4,8 km/h (1 Bft) 100 %
04.10.2014 19:30 12,3 C 12,3 C 12,7 C 86 % 1016,0 hPa 0,0 l/m 0,3 km/h (0 Bft) SO 129 0 min 0,000 mm 0 W/m 10,0 C 12,3 C 4,8 km/h (1 Bft) 100 %
04.10.2014 19:40 12,1 C 12,1 C 12,3 C 87 % 1016,0 hPa 0,0 l/m 0,2 km/h (0 Bft) S-SO 160 0 min 0,000 mm 0 W/m 10,0 C 12,1 C 4,8 km/h (1 Bft) 100 %
04.10.2014 19:50 11,8 C 11,8 C 12,1 C 88 % 1015,9 hPa 0,0 l/m 1,5 km/h (1 Bft) O-SO 113 0 min 0,000 mm 0 W/m 9,9 C 11,8 C 8,0 km/h (2 Bft) 100 %
04.10.2014 20:00 11,6 C 11,6 C 11,8 C 88 % 1015,9 hPa 0,0 l/m 1,2 km/h (1 Bft) O-SO 107 0 min 0,000 mm 0 W/m 9,7 C 11,6 C 6,4 km/h (2 Bft) 100 %
04.10.2014 20:10 11,4 C 11,4 C 11,6 C 88 % 1015,9 hPa 0,0 l/m 0,8 km/h (0 Bft) O-NO 68 0 min 0,000 mm 0 W/m 9,5 C 11,4 C 8,0 km/h (2 Bft) 100 %
04.10.2014 20:20 11,3 C 11,3 C 11,4 C 89 % 1015,9 hPa 0,0 l/m 0,6 km/h (0 Bft) O-SO 108 0 min 0,000 mm 0 W/m 9,6 C 11,3 C 4,8 km/h (1 Bft) 100 %
04.10.2014 20:30 11,2 C 11,2 C 11,3 C 89 % 1016,1 hPa 0,0 l/m 0,8 km/h (0 Bft) O-SO 111 0 min 0,000 mm 0 W/m 9,5 C 11,2 C 6,4 km/h (2 Bft) 100 %
04.10.2014 20:40 11,0 C 11,0 C 11,2 C 89 % 1016,0 hPa 0,0 l/m 0,5 km/h (0 Bft) O 94 0 min 0,000 mm 0 W/m 9,3 C 11,0 C 4,8 km/h (1 Bft) 91 %
04.10.2014 20:50 10,9 C 10,8 C 11,0 C 89 % 1016,1 hPa 0,0 l/m 0,1 km/h (0 Bft) O-SO 113 0 min 0,000 mm 0 W/m 9,2 C 10,9 C 4,8 km/h (1 Bft) 99 %
04.10.2014 21:00 10,7 C 10,7 C 10,9 C 89 % 1015,9 hPa 0,0 l/m 0,9 km/h (0 Bft) NO 51 0 min 0,000 mm 0 W/m 9,0 C 10,7 C 6,4 km/h (2 Bft) 100 %
04.10.2014 21:10 10,7 C 10,7 C 10,7 C 89 % 1015,9 hPa 0,0 l/m 1,6 km/h (1 Bft) O-SO 112 0 min 0,000 mm 0 W/m 9,0 C 10,7 C 8,0 km/h (2 Bft) 97 %
04.10.2014 21:20 10,6 C 10,6 C 10,7 C 90 % 1016,1 hPa 0,0 l/m 0,0 km/h (0 Bft) W-SW 247 0 min 0,000 mm 0 W/m 9,0 C 10,6 C 4,8 km/h (1 Bft) 98 %
04.10.2014 21:30 10,5 C 10,5 C 10,6 C 90 % 1016,0 hPa 0,0 l/m 0,0 km/h (0 Bft) N 0 0 min 0,000 mm 0 W/m 8,9 C 10,5 C 0,0 km/h (0 Bft) 97 %
04.10.2014 21:40 10,3 C 10,3 C 10,5 C 90 % 1015,9 hPa 0,0 l/m 0,0 km/h (0 Bft) W-SW 247 0 min 0,000 mm 0 W/m 8,7 C 10,3 C 3,2 km/h (1 Bft) 97 %
04.10.2014 21:50 10,2 C 10,2 C 10,3 C 90 % 1016,1 hPa 0,0 l/m 0,0 km/h (0 Bft) W-SW 247 0 min 0,000 mm 0 W/m 8,6 C 10,2 C 1,6 km/h (1 Bft) 98 %
04.10.2014 22:00 10,1 C 10,1 C 10,2 C 90 % 1016,0 hPa 0,0 l/m 0,0 km/h (0 Bft) W-SW 247 0 min 0,000 mm 0 W/m 8,5 C 10,1 C 3,2 km/h (1 Bft) 97 %
04.10.2014 22:10 10,0 C 9,9 C 10,1 C 90 % 1016,0 hPa 0,0 l/m 0,0 km/h (0 Bft) O-SO 112 0 min 0,000 mm 0 W/m 8,4 C 10,0 C 6,4 km/h (2 Bft) 98 %
04.10.2014 22:20 9,9 C 9,9 C 10,0 C 90 % 1016,0 hPa 0,0 l/m 0,0 km/h (0 Bft) N 360 0 min 0,000 mm 0 W/m 8,3 C 9,9 C 1,6 km/h (1 Bft) 97 %
04.10.2014 22:30 9,7 C 9,7 C 9,9 C 90 % 1016,1 hPa 0,0 l/m 0,0 km/h (0 Bft) N 360 0 min 0,000 mm 0 W/m 8,1 C 9,7 C 3,2 km/h (1 Bft) 98 %
04.10.2014 22:40 9,6 C 9,6 C 9,7 C 90 % 1016,2 hPa 0,0 l/m 0,0 km/h (0 Bft) N 360 0 min 0,000 mm 0 W/m 8,0 C 9,6 C 1,6 km/h (1 Bft) 97 %
04.10.2014 23:00 9,4 C 9,4 C 9,7 C 90 % 1016,0 hPa 0,0 l/m 0,0 km/h (0 Bft) N 5 0 min 0,000 mm 0 W/m 7,8 C 9,4 C 0,0 km/h (0 Bft) 100 %
04.10.2014 23:10 9,3 C 9,3 C 9,4 C 90 % 1016,1 hPa 0,0 l/m 0,1 km/h (0 Bft) N 5 0 min 0,000 mm 0 W/m 7,7 C 9,3 C 3,2 km/h (1 Bft) 99 %
04.10.2014 23:20 9,2 C 9,2 C 9,3 C 90 % 1016,0 hPa 0,0 l/m 0,0 km/h (0 Bft) N 360 0 min 0,000 mm 0 W/m 7,6 C 9,2 C 1,6 km/h (1 Bft) 98 %
04.10.2014 23:30 9,0 C 9,0 C 9,2 C 90 % 1016,1 hPa 0,0 l/m 0,0 km/h (0 Bft) N 360 0 min 0,000 mm 0 W/m 7,4 C 9,0 C 3,2 km/h (1 Bft) 97 %
04.10.2014 23:40 8,8 C 8,8 C 9,0 C 90 % 1016,0 hPa 0,0 l/m 0,0 km/h (0 Bft) N 0 0 min 0,000 mm 0 W/m 7,3 C 8,8 C 0,0 km/h (0 Bft) 98 %
04.10.2014 23:50 8,8 C 8,7 C 8,8 C 90 % 1016,0 hPa 0,0 l/m 0,0 km/h (0 Bft) N 360 0 min 0,000 mm 0 W/m 7,3 C 8,8 C 4,8 km/h (1 Bft) 97 %
_ Min-Zeit 07:30 07:30 07:30 15:30 16:50 - 00:00 - - - - - 07:20 07:20 01:10 05:50
Minimum _ 7,4 C 7,4 C 7,5 C 65 % 1015,2 hPa - 0,0 km/h (0 Bft) - - - - - 6,0 C 7,5 C 0,0 km/h (0 Bft) 86 %
_ Max-Zeit 15:30 15:40 15:30 04:20 00:00 00:00 12:20 - - 09:00 13:00 13:00 15:40 15:30 14:00 00:50
Maximum _ 19,2 C 19,1 C 19,2 C 91 % 1021,6 hPa 0,0 l/m 7,2 km/h
O-SO (2 Bft)
- - 10 min 0,330 mm 585 W/m 12,8 C 19,2 C 24,1 km/h
SO (4 Bft)
100 %
Durchschnitt _ 12,2 C 12,1 C 12,3 C 84 % 1017,8 hPa #0,0 l/m 1,3 km/h (1 Bft) O-SO - #6:40 h #1,854 mm 285 W/m 9,5 C 12,2 C 7,2 km/h (2 Bft) 99 %
PRIVATE WETTERSTATION BILLIGHEIM-ALLFELD - www.neckar-odenwald-wetter.de - Holger Sonntag